sensor_id;sensor_type;location;lat;lon;timestamp;pressure;altitude;pressure_sealevel;temperature
77728;BMP280;68312;53.502;10.030;2023-05-09T00:01:08;102332.28;;;10.26
77728;BMP280;68312;53.502;10.030;2023-05-09T00:03:36;102336.03;;;10.15
77728;BMP280;68312;53.502;10.030;2023-05-09T00:06:01;102341.34;;;10.01
77728;BMP280;68312;53.502;10.030;2023-05-09T00:08:27;102334.28;;;9.96
77728;BMP280;68312;53.502;10.030;2023-05-09T00:10:52;102330.09;;;9.95
77728;BMP280;68312;53.502;10.030;2023-05-09T00:13:18;102323.03;;;9.96
77728;BMP280;68312;53.502;10.030;2023-05-09T00:15:44;102327.41;;;10.05
77728;BMP280;68312;53.502;10.030;2023-05-09T00:18:09;102324.97;;;10.18
77728;BMP280;68312;53.502;10.030;2023-05-09T00:20:35;102317.06;;;10.23
77728;BMP280;68312;53.502;10.030;2023-05-09T00:23:00;102319.72;;;10.23
77728;BMP280;68312;53.502;10.030;2023-05-09T00:25:26;102311.28;;;10.26
77728;BMP280;68312;53.502;10.030;2023-05-09T00:27:51;102317.59;;;10.25
77728;BMP280;68312;53.502;10.030;2023-05-09T00:30:17;102314.44;;;10.23
77728;BMP280;68312;53.502;10.030;2023-05-09T00:32:42;102308.91;;;10.25
77728;BMP280;68312;53.502;10.030;2023-05-09T00:35:08;102311.75;;;10.33
77728;BMP280;68312;53.502;10.030;2023-05-09T00:37:34;102304.69;;;10.29
77728;BMP280;68312;53.502;10.030;2023-05-09T00:39:59;102303.41;;;10.26
77728;BMP280;68312;53.502;10.030;2023-05-09T00:42:25;102299.22;;;10.25
77728;BMP280;68312;53.502;10.030;2023-05-09T00:44:50;102297.69;;;10.19
77728;BMP280;68312;53.502;10.030;2023-05-09T00:47:16;102293.53;;;10.09
77728;BMP280;68312;53.502;10.030;2023-05-09T00:49:42;102296.22;;;9.99
77728;BMP280;68312;53.502;10.030;2023-05-09T00:52:08;102287.31;;;10.00
77728;BMP280;68312;53.502;10.030;2023-05-09T00:54:34;102283.66;;;9.96
77728;BMP280;68312;53.502;10.030;2023-05-09T00:56:59;102277.59;;;9.95
77728;BMP280;68312;53.502;10.030;2023-05-09T00:59:28;102274.66;;;10.02
77728;BMP280;68312;53.502;10.030;2023-05-09T01:01:53;102274.88;;;10.10
77728;BMP280;68312;53.502;10.030;2023-05-09T01:04:19;102272.94;;;10.20
77728;BMP280;68312;53.502;10.030;2023-05-09T01:10:28;102261.38;;;10.26
77728;BMP280;68312;53.502;10.030;2023-05-09T01:13:26;102254.31;;;10.22
77728;BMP280;68312;53.502;10.030;2023-05-09T01:19:59;102254.41;;;10.12
77728;BMP280;68312;53.502;10.030;2023-05-09T01:22:42;102247.38;;;10.03
77728;BMP280;68312;53.502;10.030;2023-05-09T01:28:30;102234.81;;;9.95
77728;BMP280;68312;53.502;10.030;2023-05-09T01:31:16;102233.78;;;9.96
77728;BMP280;68312;53.502;10.030;2023-05-09T01:33:45;102228.78;;;9.94
77728;BMP280;68312;53.502;10.030;2023-05-09T01:36:20;102227.50;;;9.92
77728;BMP280;68312;53.502;10.030;2023-05-09T01:38:49;102225.91;;;9.91
77728;BMP280;68312;53.502;10.030;2023-05-09T01:41:17;102233.56;;;9.87
77728;BMP280;68312;53.502;10.030;2023-05-09T01:43:47;102233.56;;;9.87
77728;BMP280;68312;53.502;10.030;2023-05-09T01:46:17;102225.66;;;9.92
77728;BMP280;68312;53.502;10.030;2023-05-09T01:48:46;102222.28;;;9.87
77728;BMP280;68312;53.502;10.030;2023-05-09T01:51:15;102223.88;;;9.83
77728;BMP280;68312;53.502;10.030;2023-05-09T01:53:42;102231.22;;;9.81
77728;BMP280;68312;53.502;10.030;2023-05-09T01:56:10;102215.78;;;9.75
77728;BMP280;68312;53.502;10.030;2023-05-09T01:58:38;102223.38;;;9.76
77728;BMP280;68312;53.502;10.030;2023-05-09T02:01:05;102222.06;;;9.79
77728;BMP280;68312;53.502;10.030;2023-05-09T02:03:31;102225.47;;;9.74
77728;BMP280;68312;53.502;10.030;2023-05-09T02:06:02;102227.38;;;9.69
77728;BMP280;68312;53.502;10.030;2023-05-09T02:08:29;102227.69;;;9.62
77728;BMP280;68312;53.502;10.030;2023-05-09T02:10:57;102218.72;;;9.68
77728;BMP280;68312;53.502;10.030;2023-05-09T02:13:22;102229.75;;;9.70
77728;BMP280;68312;53.502;10.030;2023-05-09T02:15:48;102223.97;;;9.63
77728;BMP280;68312;53.502;10.030;2023-05-09T02:18:14;102224.00;;;9.58
77728;BMP280;68312;53.502;10.030;2023-05-09T02:20:39;102221.69;;;9.52
77728;BMP280;68312;53.502;10.030;2023-05-09T02:23:05;102217.22;;;9.48
77728;BMP280;68312;53.502;10.030;2023-05-09T02:25:31;102220.41;;;9.45
77728;BMP280;68312;53.502;10.030;2023-05-09T02:27:59;102218.84;;;9.39
77728;BMP280;68312;53.502;10.030;2023-05-09T02:30:28;102213.06;;;9.42
77728;BMP280;68312;53.502;10.030;2023-05-09T02:33:06;102224.09;;;9.39
77728;BMP280;68312;53.502;10.030;2023-05-09T02:35:35;102219.94;;;9.23
77728;BMP280;68312;53.502;10.030;2023-05-09T02:38:02;102218.69;;;9.11
77728;BMP280;68312;53.502;10.030;2023-05-09T02:40:29;102214.72;;;9.13
77728;BMP280;68312;53.502;10.030;2023-05-09T02:42:55;102225.47;;;9.17
77728;BMP280;68312;53.502;10.030;2023-05-09T02:45:21;102210.81;;;9.11
77728;BMP280;68312;53.502;10.030;2023-05-09T02:47:47;102209.75;;;9.12
77728;BMP280;68312;53.502;10.030;2023-05-09T02:50:12;102205.06;;;9.09
77728;BMP280;68312;53.502;10.030;2023-05-09T02:52:38;102202.44;;;9.09
77728;BMP280;68312;53.502;10.030;2023-05-09T02:55:04;102196.94;;;9.10
77728;BMP280;68312;53.502;10.030;2023-05-09T02:57:30;102202.69;;;9.12
77728;BMP280;68312;53.502;10.030;2023-05-09T02:59:56;102193.00;;;9.08
77728;BMP280;68312;53.502;10.030;2023-05-09T03:02:22;102197.97;;;9.04
77728;BMP280;68312;53.502;10.030;2023-05-09T03:04:48;102193.31;;;9.01
77728;BMP280;68312;53.502;10.030;2023-05-09T03:07:13;102195.41;;;8.99
77728;BMP280;68312;53.502;10.030;2023-05-09T03:09:39;102202.72;;;8.97
77728;BMP280;68312;53.502;10.030;2023-05-09T03:12:05;102200.66;;;8.90
77728;BMP280;68312;53.502;10.030;2023-05-09T03:14:30;102198.56;;;8.87
77728;BMP280;68312;53.502;10.030;2023-05-09T03:16:56;102188.38;;;8.80
77728;BMP280;68312;53.502;10.030;2023-05-09T03:19:21;102188.09;;;8.77
77728;BMP280;68312;53.502;10.030;2023-05-09T03:21:47;102196.50;;;8.74
77728;BMP280;68312;53.502;10.030;2023-05-09T03:24:12;102182.34;;;8.70
77728;BMP280;68312;53.502;10.030;2023-05-09T03:26:38;102187.59;;;8.60
77728;BMP280;68312;53.502;10.030;2023-05-09T03:29:03;102194.94;;;8.48
77728;BMP280;68312;53.502;10.030;2023-05-09T03:31:29;102188.16;;;8.42
77728;BMP280;68312;53.502;10.030;2023-05-09T03:33:54;102182.09;;;8.37
77728;BMP280;68312;53.502;10.030;2023-05-09T03:36:20;102176.84;;;8.37
77728;BMP280;68312;53.502;10.030;2023-05-09T03:38:45;102179.75;;;8.40
77728;BMP280;68312;53.502;10.030;2023-05-09T03:41:11;102174.00;;;8.53
77728;BMP280;68312;53.502;10.030;2023-05-09T03:43:40;102172.41;;;8.57
77728;BMP280;68312;53.502;10.030;2023-05-09T03:46:05;102177.16;;;8.55
77728;BMP280;68312;53.502;10.030;2023-05-09T03:48:31;102170.84;;;8.51
77728;BMP280;68312;53.502;10.030;2023-05-09T03:50:56;102167.47;;;8.51
77728;BMP280;68312;53.502;10.030;2023-05-09T03:53:22;102170.06;;;8.56
77728;BMP280;68312;53.502;10.030;2023-05-09T03:55:47;102171.13;;;8.55
77728;BMP280;68312;53.502;10.030;2023-05-09T03:58:13;102163.28;;;8.55
77728;BMP280;68312;53.502;10.030;2023-05-09T04:00:39;102169.81;;;8.52
77728;BMP280;68312;53.502;10.030;2023-05-09T04:03:05;102156.97;;;8.51
77728;BMP280;68312;53.502;10.030;2023-05-09T04:05:31;102158.03;;;8.45
77728;BMP280;68312;53.502;10.030;2023-05-09T04:07:57;102165.91;;;8.45
77728;BMP280;68312;53.502;10.030;2023-05-09T04:10:22;102162.75;;;8.43
77728;BMP280;68312;53.502;10.030;2023-05-09T04:12:48;102160.91;;;8.38
77728;BMP280;68312;53.502;10.030;2023-05-09T04:15:13;102167.19;;;8.37
77728;BMP280;68312;53.502;10.030;2023-05-09T04:17:39;102154.88;;;8.38
77728;BMP280;68312;53.502;10.030;2023-05-09T04:20:04;102156.19;;;8.40
77728;BMP280;68312;53.502;10.030;2023-05-09T04:22:30;102149.38;;;8.49
77728;BMP280;68312;53.502;10.030;2023-05-09T04:24:56;102154.38;;;8.46
77728;BMP280;68312;53.502;10.030;2023-05-09T04:27:21;102147.00;;;8.48
77728;BMP280;68312;53.502;10.030;2023-05-09T04:29:47;102148.59;;;8.49
77728;BMP280;68312;53.502;10.030;2023-05-09T04:32:12;102146.75;;;8.54
77728;BMP280;68312;53.502;10.030;2023-05-09T04:34:38;102141.00;;;8.57
77728;BMP280;68312;53.502;10.030;2023-05-09T04:37:03;102136.28;;;8.59
77728;BMP280;68312;53.502;10.030;2023-05-09T04:39:29;102138.13;;;8.59
77728;BMP280;68312;53.502;10.030;2023-05-09T04:41:54;102151.72;;;8.61
77728;BMP280;68312;53.502;10.030;2023-05-09T04:44:20;102149.38;;;8.59
77728;BMP280;68312;53.502;10.030;2023-05-09T04:46:45;102140.75;;;8.59
77728;BMP280;68312;53.502;10.030;2023-05-09T04:49:11;102138.06;;;8.78
77728;BMP280;68312;53.502;10.030;2023-05-09T04:51:36;102148.00;;;8.76
77728;BMP280;68312;53.502;10.030;2023-05-09T04:54:02;102139.13;;;8.82
77728;BMP280;68312;53.502;10.030;2023-05-09T04:56:27;102150.34;;;8.88
77728;BMP280;68312;53.502;10.030;2023-05-09T04:58:53;102139.88;;;8.93
77728;BMP280;68312;53.502;10.030;2023-05-09T05:01:18;102142.22;;;8.99
77728;BMP280;68312;53.502;10.030;2023-05-09T05:03:44;102139.53;;;9.04
77728;BMP280;68312;53.502;10.030;2023-05-09T05:06:09;102138.22;;;9.11
77728;BMP280;68312;53.502;10.030;2023-05-09T05:08:34;102129.28;;;9.17
77728;BMP280;68312;53.502;10.030;2023-05-09T05:11:00;102124.53;;;9.24
77728;BMP280;68312;53.502;10.030;2023-05-09T05:13:26;102125.78;;;9.36
77728;BMP280;68312;53.502;10.030;2023-05-09T05:15:51;102129.94;;;9.42
77728;BMP280;68312;53.502;10.030;2023-05-09T05:18:17;102119.97;;;9.44
77728;BMP280;68312;53.502;10.030;2023-05-09T05:20:42;102111.25;;;9.49
77728;BMP280;68312;53.502;10.030;2023-05-09T05:23:08;102114.38;;;9.55
77728;BMP280;68312;53.502;10.030;2023-05-09T05:25:34;102109.38;;;9.59
77728;BMP280;68312;53.502;10.030;2023-05-09T05:27:59;102112.19;;;9.67
77728;BMP280;68312;53.502;10.030;2023-05-09T05:30:25;102103.75;;;9.75
77728;BMP280;68312;53.502;10.030;2023-05-09T05:32:50;102111.81;;;9.84
77728;BMP280;68312;53.502;10.030;2023-05-09T05:35:16;102106.00;;;9.91
77728;BMP280;68312;53.502;10.030;2023-05-09T05:37:42;102109.84;;;9.99
77728;BMP280;68312;53.502;10.030;2023-05-09T05:40:08;102100.06;;;10.09
77728;BMP280;68312;53.502;10.030;2023-05-09T05:42:34;102093.69;;;10.15
77728;BMP280;68312;53.502;10.030;2023-05-09T05:45:00;102091.03;;;10.20
77728;BMP280;68312;53.502;10.030;2023-05-09T05:47:26;102097.19;;;10.34
77728;BMP280;68312;53.502;10.030;2023-05-09T05:49:51;102091.53;;;10.45
77728;BMP280;68312;53.502;10.030;2023-05-09T05:52:17;102082.25;;;10.52
77728;BMP280;68312;53.502;10.030;2023-05-09T05:54:42;102083.56;;;10.55
77728;BMP280;68312;53.502;10.030;2023-05-09T05:57:08;102081.97;;;10.59
77728;BMP280;68312;53.502;10.030;2023-05-09T05:59:33;102086.00;;;10.70
77728;BMP280;68312;53.502;10.030;2023-05-09T06:01:58;102085.19;;;10.74
77728;BMP280;68312;53.502;10.030;2023-05-09T06:04:24;102079.38;;;10.95
77728;BMP280;68312;53.502;10.030;2023-05-09T06:06:49;102069.63;;;10.96
77728;BMP280;68312;53.502;10.030;2023-05-09T06:09:15;102078.09;;;11.11
77728;BMP280;68312;53.502;10.030;2023-05-09T06:11:40;102075.81;;;11.23
77728;BMP280;68312;53.502;10.030;2023-05-09T06:14:06;102070.44;;;11.32
77728;BMP280;68312;53.502;10.030;2023-05-09T06:16:31;102074.03;;;11.55
77728;BMP280;68312;53.502;10.030;2023-05-09T06:18:57;102078.03;;;11.65
77728;BMP280;68312;53.502;10.030;2023-05-09T06:21:22;102076.88;;;11.71
77728;BMP280;68312;53.502;10.030;2023-05-09T06:23:48;102060.56;;;11.88
77728;BMP280;68312;53.502;10.030;2023-05-09T06:26:13;102061.81;;;12.03
77728;BMP280;68312;53.502;10.030;2023-05-09T06:28:39;102056.97;;;12.23
77728;BMP280;68312;53.502;10.030;2023-05-09T06:31:04;102055.09;;;12.37
77728;BMP280;68312;53.502;10.030;2023-05-09T06:33:30;102044.81;;;12.62
77728;BMP280;68312;53.502;10.030;2023-05-09T06:35:55;102038.19;;;12.65
77728;BMP280;68312;53.502;10.030;2023-05-09T06:38:22;102034.56;;;12.74
77728;BMP280;68312;53.502;10.030;2023-05-09T06:40:48;102032.06;;;12.91
77728;BMP280;68312;53.502;10.030;2023-05-09T06:43:13;102029.19;;;13.01
77728;BMP280;68312;53.502;10.030;2023-05-09T06:45:39;102018.13;;;13.12
77728;BMP280;68312;53.502;10.030;2023-05-09T06:48:05;102022.44;;;13.30
77728;BMP280;68312;53.502;10.030;2023-05-09T06:50:30;102012.88;;;13.42
77728;BMP280;68312;53.502;10.030;2023-05-09T06:52:55;102014.97;;;13.61
77728;BMP280;68312;53.502;10.030;2023-05-09T06:55:21;102007.59;;;13.80
77728;BMP280;68312;53.502;10.030;2023-05-09T06:57:46;102016.72;;;13.96
77728;BMP280;68312;53.502;10.030;2023-05-09T07:00:13;102007.72;;;14.05
77728;BMP280;68312;53.502;10.030;2023-05-09T07:02:39;101986.31;;;14.32
77728;BMP280;68312;53.502;10.030;2023-05-09T07:05:04;101997.66;;;14.49
77728;BMP280;68312;53.502;10.030;2023-05-09T07:07:30;101994.25;;;14.65
77728;BMP280;68312;53.502;10.030;2023-05-09T07:09:59;101996.91;;;14.73
77728;BMP280;68312;53.502;10.030;2023-05-09T07:12:24;101997.97;;;14.89
77728;BMP280;68312;53.502;10.030;2023-05-09T07:14:50;101992.38;;;14.99
77728;BMP280;68312;53.502;10.030;2023-05-09T07:17:15;101985.13;;;15.24
77728;BMP280;68312;53.502;10.030;2023-05-09T07:19:41;101987.44;;;15.34
77728;BMP280;68312;53.502;10.030;2023-05-09T07:22:06;101987.47;;;15.63
77728;BMP280;68312;53.502;10.030;2023-05-09T07:24:32;101975.97;;;15.87
77728;BMP280;68312;53.502;10.030;2023-05-09T07:26:57;101980.25;;;16.00
77728;BMP280;68312;53.502;10.030;2023-05-09T07:29:23;101981.84;;;15.93
77728;BMP280;68312;53.502;10.030;2023-05-09T07:31:51;101975.00;;;15.92
77728;BMP280;68312;53.502;10.030;2023-05-09T07:34:16;101971.00;;;15.86
77728;BMP280;68312;53.502;10.030;2023-05-09T07:36:42;101963.91;;;15.98
77728;BMP280;68312;53.502;10.030;2023-05-09T07:39:07;101964.19;;;16.25
77728;BMP280;68312;53.502;10.030;2023-05-09T07:41:33;101949.53;;;16.39
77728;BMP280;68312;53.502;10.030;2023-05-09T07:43:58;101949.31;;;16.76
77728;BMP280;68312;53.502;10.030;2023-05-09T07:46:24;101942.63;;;17.02
77728;BMP280;68312;53.502;10.030;2023-05-09T07:48:49;101945.22;;;17.22
77728;BMP280;68312;53.502;10.030;2023-05-09T07:51:15;101932.38;;;17.13
77728;BMP280;68312;53.502;10.030;2023-05-09T07:53:40;101927.47;;;17.62
77728;BMP280;68312;53.502;10.030;2023-05-09T07:56:06;101929.59;;;17.95
77728;BMP280;68312;53.502;10.030;2023-05-09T07:58:31;101927.97;;;18.18
77728;BMP280;68312;53.502;10.030;2023-05-09T08:00:57;101922.22;;;18.16
77728;BMP280;68312;53.502;10.030;2023-05-09T08:03:23;101920.00;;;18.60
77728;BMP280;68312;53.502;10.030;2023-05-09T08:05:52;101922.59;;;18.56
77728;BMP280;68312;53.502;10.030;2023-05-09T08:08:18;101919.94;;;19.02
77728;BMP280;68312;53.502;10.030;2023-05-09T08:10:44;101914.38;;;19.25
77728;BMP280;68312;53.502;10.030;2023-05-09T08:13:09;101910.56;;;19.42
77728;BMP280;68312;53.502;10.030;2023-05-09T08:15:35;101897.94;;;19.95
77728;BMP280;68312;53.502;10.030;2023-05-09T08:18:00;101890.97;;;20.72
77728;BMP280;68312;53.502;10.030;2023-05-09T08:20:26;101877.13;;;20.66
77728;BMP280;68312;53.502;10.030;2023-05-09T08:22:51;101874.91;;;21.19
77728;BMP280;68312;53.502;10.030;2023-05-09T08:25:17;101872.09;;;22.09
77728;BMP280;68312;53.502;10.030;2023-05-09T08:27:42;101870.81;;;22.43
77728;BMP280;68312;53.502;10.030;2023-05-09T08:30:08;101865.38;;;22.29
77728;BMP280;68312;53.502;10.030;2023-05-09T08:32:35;101867.19;;;21.76
77728;BMP280;68312;53.502;10.030;2023-05-09T08:35:00;101869.50;;;22.16
77728;BMP280;68312;53.502;10.030;2023-05-09T08:37:26;101866.75;;;22.09
77728;BMP280;68312;53.502;10.030;2023-05-09T08:39:51;101866.34;;;22.07
77728;BMP280;68312;53.502;10.030;2023-05-09T08:42:17;101867.38;;;22.42
77728;BMP280;68312;53.502;10.030;2023-05-09T08:44:47;101857.31;;;23.69
77728;BMP280;68312;53.502;10.030;2023-05-09T08:47:13;101855.41;;;24.49
77728;BMP280;68312;53.502;10.030;2023-05-09T08:49:39;101861.00;;;24.92
77728;BMP280;68312;53.502;10.030;2023-05-09T08:52:05;101848.28;;;25.02
77728;BMP280;68312;53.502;10.030;2023-05-09T08:54:32;101838.78;;;25.55
77728;BMP280;68312;53.502;10.030;2023-05-09T08:56:59;101844.00;;;25.19
77728;BMP280;68312;53.502;10.030;2023-05-09T08:59:25;101838.84;;;25.45
77728;BMP280;68312;53.502;10.030;2023-05-09T09:01:52;101834.88;;;25.66
77728;BMP280;68312;53.502;10.030;2023-05-09T09:04:18;101832.44;;;26.18
77728;BMP280;68312;53.502;10.030;2023-05-09T09:06:44;101822.81;;;25.81
77728;BMP280;68312;53.502;10.030;2023-05-09T09:09:10;101822.56;;;25.62
77728;BMP280;68312;53.502;10.030;2023-05-09T09:11:39;101830.63;;;24.95
77728;BMP280;68312;53.502;10.030;2023-05-09T09:14:11;101818.38;;;24.97
77728;BMP280;68312;53.502;10.030;2023-05-09T09:16:40;101820.09;;;24.23
77728;BMP280;68312;53.502;10.030;2023-05-09T09:19:15;101820.00;;;23.16
77728;BMP280;68312;53.502;10.030;2023-05-09T09:21:44;101818.97;;;22.68
77728;BMP280;68312;53.502;10.030;2023-05-09T09:24:12;101817.78;;;23.46
77728;BMP280;68312;53.502;10.030;2023-05-09T09:26:45;101815.13;;;23.83
77728;BMP280;68312;53.502;10.030;2023-05-09T09:29:13;101804.31;;;23.25
77728;BMP280;68312;53.502;10.030;2023-05-09T09:31:46;101812.38;;;23.39
77728;BMP280;68312;53.502;10.030;2023-05-09T09:34:13;101811.25;;;23.40
77728;BMP280;68312;53.502;10.030;2023-05-09T09:36:45;101803.25;;;23.60
77728;BMP280;68312;53.502;10.030;2023-05-09T09:39:11;101799.41;;;23.55
77728;BMP280;68312;53.502;10.030;2023-05-09T09:41:38;101796.31;;;23.49
77728;BMP280;68312;53.502;10.030;2023-05-09T09:44:07;101778.31;;;23.46
77728;BMP280;68312;53.502;10.030;2023-05-09T09:46:51;101776.41;;;23.98
77728;BMP280;68312;53.502;10.030;2023-05-09T09:49:20;101784.81;;;24.14
77728;BMP280;68312;53.502;10.030;2023-05-09T09:51:53;101771.63;;;24.74
77728;BMP280;68312;53.502;10.030;2023-05-09T09:54:25;101777.59;;;25.02
77728;BMP280;68312;53.502;10.030;2023-05-09T09:56:51;101763.25;;;25.29
77728;BMP280;68312;53.502;10.030;2023-05-09T09:59:20;101760.38;;;25.93
77728;BMP280;68312;53.502;10.030;2023-05-09T10:02:05;101763.72;;;25.64
77728;BMP280;68312;53.502;10.030;2023-05-09T10:04:33;101759.06;;;26.07
77728;BMP280;68312;53.502;10.030;2023-05-09T10:07:05;101762.53;;;26.08
77728;BMP280;68312;53.502;10.030;2023-05-09T10:09:35;101765.72;;;26.32
77728;BMP280;68312;53.502;10.030;2023-05-09T10:12:03;101760.66;;;26.38
77728;BMP280;68312;53.502;10.030;2023-05-09T10:14:32;101752.13;;;26.72
77728;BMP280;68312;53.502;10.030;2023-05-09T10:17:01;101751.66;;;26.47
77728;BMP280;68312;53.502;10.030;2023-05-09T10:19:29;101749.06;;;26.41
77728;BMP280;68312;53.502;10.030;2023-05-09T10:21:57;101738.28;;;26.41
77728;BMP280;68312;53.502;10.030;2023-05-09T10:25:00;101722.44;;;26.46
77728;BMP280;68312;53.502;10.030;2023-05-09T10:27:31;101719.28;;;26.18
77728;BMP280;68312;53.502;10.030;2023-05-09T10:30:06;101706.44;;;26.32
77728;BMP280;68312;53.502;10.030;2023-05-09T10:33:20;101715.13;;;26.72
77728;BMP280;68312;53.502;10.030;2023-05-09T10:35:46;101716.53;;;26.84
77728;BMP280;68312;53.502;10.030;2023-05-09T10:38:14;101717.56;;;26.64
77728;BMP280;68312;53.502;10.030;2023-05-09T10:40:40;101702.84;;;26.94
77728;BMP280;68312;53.502;10.030;2023-05-09T10:43:06;101696.94;;;27.25
77728;BMP280;68312;53.502;10.030;2023-05-09T10:45:32;101683.75;;;27.30
77728;BMP280;68312;53.502;10.030;2023-05-09T10:47:59;101680.19;;;27.14
77728;BMP280;68312;53.502;10.030;2023-05-09T10:50:26;101678.50;;;26.97
77728;BMP280;68312;53.502;10.030;2023-05-09T10:55:38;101657.97;;;26.81
77728;BMP280;68312;53.502;10.030;2023-05-09T11:00:56;101658.59;;;27.14
77728;BMP280;68312;53.502;10.030;2023-05-09T11:03:25;101661.06;;;26.57
77728;BMP280;68312;53.502;10.030;2023-05-09T11:05:54;101653.38;;;27.26
77728;BMP280;68312;53.502;10.030;2023-05-09T11:08:29;101637.84;;;27.11
77728;BMP280;68312;53.502;10.030;2023-05-09T11:11:05;101626.78;;;26.80
77728;BMP280;68312;53.502;10.030;2023-05-09T11:13:35;101635.31;;;26.52
77728;BMP280;68312;53.502;10.030;2023-05-09T11:18:32;101620.66;;;27.21
77728;BMP280;68312;53.502;10.030;2023-05-09T11:21:02;101620.41;;;27.57
77728;BMP280;68312;53.502;10.030;2023-05-09T11:23:32;101616.56;;;27.74
77728;BMP280;68312;53.502;10.030;2023-05-09T11:26:05;101610.69;;;27.40
77728;BMP280;68312;53.502;10.030;2023-05-09T11:28:35;101611.91;;;26.72
77728;BMP280;68312;53.502;10.030;2023-05-09T11:31:16;101602.97;;;26.52
77728;BMP280;68312;53.502;10.030;2023-05-09T11:33:44;101601.72;;;26.79
77728;BMP280;68312;53.502;10.030;2023-05-09T11:41:29;101580.16;;;25.72
77728;BMP280;68312;53.502;10.030;2023-05-09T11:43:55;101570.81;;;25.11
77728;BMP280;68312;53.502;10.030;2023-05-09T11:46:21;101574.72;;;25.06
77728;BMP280;68312;53.502;10.030;2023-05-09T11:48:47;101575.28;;;25.27
77728;BMP280;68312;53.502;10.030;2023-05-09T11:51:17;101582.59;;;25.27
77728;BMP280;68312;53.502;10.030;2023-05-09T11:53:44;101575.06;;;25.51
77728;BMP280;68312;53.502;10.030;2023-05-09T11:56:15;101574.38;;;25.41
77728;BMP280;68312;53.502;10.030;2023-05-09T11:58:41;101565.19;;;25.38
77728;BMP280;68312;53.502;10.030;2023-05-09T12:01:07;101557.84;;;25.75
77728;BMP280;68312;53.502;10.030;2023-05-09T12:03:32;101560.06;;;25.83
77728;BMP280;68312;53.502;10.030;2023-05-09T12:05:58;101545.63;;;25.71
77728;BMP280;68312;53.502;10.030;2023-05-09T12:08:23;101546.25;;;25.78
77728;BMP280;68312;53.502;10.030;2023-05-09T12:10:49;101537.81;;;25.76
77728;BMP280;68312;53.502;10.030;2023-05-09T12:13:15;101545.78;;;25.53
77728;BMP280;68312;53.502;10.030;2023-05-09T12:15:40;101537.41;;;25.48
77728;BMP280;68312;53.502;10.030;2023-05-09T12:18:06;101543.84;;;25.18
77728;BMP280;68312;53.502;10.030;2023-05-09T12:20:39;101539.78;;;24.56
77728;BMP280;68312;53.502;10.030;2023-05-09T12:23:11;101539.25;;;24.25
77728;BMP280;68312;53.502;10.030;2023-05-09T12:25:38;101538.38;;;24.42
77728;BMP280;68312;53.502;10.030;2023-05-09T12:28:04;101529.94;;;24.90
77728;BMP280;68312;53.502;10.030;2023-05-09T12:30:30;101536.44;;;25.32
77728;BMP280;68312;53.502;10.030;2023-05-09T12:32:57;101532.75;;;25.81
77728;BMP280;68312;53.502;10.030;2023-05-09T12:35:22;101533.81;;;26.17
77728;BMP280;68312;53.502;10.030;2023-05-09T12:37:55;101529.13;;;26.46
77728;BMP280;68312;53.502;10.030;2023-05-09T12:40:22;101529.00;;;26.76
77728;BMP280;68312;53.502;10.030;2023-05-09T12:42:49;101522.94;;;26.91
77728;BMP280;68312;53.502;10.030;2023-05-09T12:45:15;101527.47;;;26.52
77728;BMP280;68312;53.502;10.030;2023-05-09T12:47:40;101527.41;;;26.56
77728;BMP280;68312;53.502;10.030;2023-05-09T12:50:06;101525.72;;;26.65
77728;BMP280;68312;53.502;10.030;2023-05-09T12:52:37;101507.44;;;26.53
77728;BMP280;68312;53.502;10.030;2023-05-09T12:55:07;101513.88;;;26.59
77728;BMP280;68312;53.502;10.030;2023-05-09T12:57:36;101521.34;;;26.26
77728;BMP280;68312;53.502;10.030;2023-05-09T13:00:07;101513.41;;;26.42
77728;BMP280;68312;53.502;10.030;2023-05-09T13:02:40;101503.31;;;26.23
77728;BMP280;68312;53.502;10.030;2023-05-09T13:05:09;101512.41;;;26.06
77728;BMP280;68312;53.502;10.030;2023-05-09T13:07:50;101504.31;;;26.06
77728;BMP280;68312;53.502;10.030;2023-05-09T13:10:24;101496.97;;;26.10
77728;BMP280;68312;53.502;10.030;2023-05-09T13:12:52;101491.66;;;26.03
77728;BMP280;68312;53.502;10.030;2023-05-09T13:15:19;101485.03;;;26.11
77728;BMP280;68312;53.502;10.030;2023-05-09T13:17:48;101489.03;;;26.26
77728;BMP280;68312;53.502;10.030;2023-05-09T13:20:16;101480.22;;;26.22
77728;BMP280;68312;53.502;10.030;2023-05-09T13:22:43;101465.53;;;26.26
77728;BMP280;68312;53.502;10.030;2023-05-09T13:25:09;101471.19;;;26.09
77728;BMP280;68312;53.502;10.030;2023-05-09T13:27:35;101467.53;;;25.97
77728;BMP280;68312;53.502;10.030;2023-05-09T13:30:02;101466.06;;;25.92
77728;BMP280;68312;53.502;10.030;2023-05-09T13:32:32;101469.34;;;26.03
77728;BMP280;68312;53.502;10.030;2023-05-09T13:34:58;101461.66;;;25.79
77728;BMP280;68312;53.502;10.030;2023-05-09T13:37:25;101468.88;;;25.85
77728;BMP280;68312;53.502;10.030;2023-05-09T13:39:51;101460.38;;;25.57
77728;BMP280;68312;53.502;10.030;2023-05-09T13:42:16;101450.81;;;25.53
77728;BMP280;68312;53.502;10.030;2023-05-09T13:44:41;101455.97;;;25.70
77728;BMP280;68312;53.502;10.030;2023-05-09T13:47:07;101458.03;;;25.89
77728;BMP280;68312;53.502;10.030;2023-05-09T13:49:33;101450.91;;;25.75
77728;BMP280;68312;53.502;10.030;2023-05-09T13:51:58;101446.78;;;25.38
77728;BMP280;68312;53.502;10.030;2023-05-09T13:54:24;101436.09;;;25.35
77728;BMP280;68312;53.502;10.030;2023-05-09T13:56:50;101431.91;;;25.60
77728;BMP280;68312;53.502;10.030;2023-05-09T13:59:16;101440.31;;;25.62
77728;BMP280;68312;53.502;10.030;2023-05-09T14:01:41;101432.06;;;26.01
77728;BMP280;68312;53.502;10.030;2023-05-09T14:04:06;101431.38;;;26.20
77728;BMP280;68312;53.502;10.030;2023-05-09T14:06:32;101437.72;;;26.33
77728;BMP280;68312;53.502;10.030;2023-05-09T14:08:57;101430.84;;;26.28
77728;BMP280;68312;53.502;10.030;2023-05-09T14:11:23;101425.78;;;26.30
77728;BMP280;68312;53.502;10.030;2023-05-09T14:13:49;101423.63;;;26.67